sensor_id;sensor_type;location;lat;lon;timestamp;pressure;altitude;pressure_sealevel;temperature;humidity
829;BME280;396;52.558;13.188;2023-09-07T00:00:11;101901.44;;;17.00;100.00
829;BME280;396;52.558;13.188;2023-09-07T00:02:39;101900.13;;;16.98;100.00
829;BME280;396;52.558;13.188;2023-09-07T00:05:06;101902.53;;;16.99;100.00
829;BME280;396;52.558;13.188;2023-09-07T00:07:33;101898.31;;;16.93;100.00
829;BME280;396;52.558;13.188;2023-09-07T00:10:00;101903.47;;;16.95;100.00
829;BME280;396;52.558;13.188;2023-09-07T00:12:27;101903.47;;;16.95;100.00
829;BME280;396;52.558;13.188;2023-09-07T00:14:54;101901.88;;;16.94;100.00
829;BME280;396;52.558;13.188;2023-09-07T00:17:21;101899.44;;;16.92;100.00
829;BME280;396;52.558;13.188;2023-09-07T00:19:49;101905.72;;;16.93;100.00
829;BME280;396;52.558;13.188;2023-09-07T00:22:16;101908.47;;;16.93;100.00
829;BME280;396;52.558;13.188;2023-09-07T00:24:43;101898.44;;;16.88;100.00
829;BME280;396;52.558;13.188;2023-09-07T00:27:10;101887.63;;;16.83;100.00
829;BME280;396;52.558;13.188;2023-09-07T00:29:37;101897.78;;;16.82;100.00
829;BME280;396;52.558;13.188;2023-09-07T00:32:04;101901.13;;;16.79;100.00
829;BME280;396;52.558;13.188;2023-09-07T00:34:31;101899.50;;;16.78;100.00
829;BME280;396;52.558;13.188;2023-09-07T00:37:00;101900.13;;;16.75;100.00
829;BME280;396;52.558;13.188;2023-09-07T00:39:27;101903.34;;;16.77;100.00
829;BME280;396;52.558;13.188;2023-09-07T00:41:53;101900.44;;;16.74;100.00
829;BME280;396;52.558;13.188;2023-09-07T00:44:20;101905.69;;;16.70;100.00
829;BME280;396;52.558;13.188;2023-09-07T00:46:47;101907.91;;;16.68;100.00
829;BME280;396;52.558;13.188;2023-09-07T00:49:14;101910.16;;;16.66;100.00
829;BME280;396;52.558;13.188;2023-09-07T00:51:40;101902.09;;;16.61;100.00
829;BME280;396;52.558;13.188;2023-09-07T00:54:08;101905.09;;;16.59;100.00
829;BME280;396;52.558;13.188;2023-09-07T00:56:35;101907.84;;;16.59;100.00
829;BME280;396;52.558;13.188;2023-09-07T00:59:02;101894.81;;;16.56;100.00
829;BME280;396;52.558;13.188;2023-09-07T01:01:30;101893.69;;;16.57;100.00
829;BME280;396;52.558;13.188;2023-09-07T01:03:58;101899.16;;;16.57;100.00
829;BME280;396;52.558;13.188;2023-09-07T01:06:27;101900.06;;;16.53;100.00
829;BME280;396;52.558;13.188;2023-09-07T01:08:57;101895.22;;;16.50;100.00
829;BME280;396;52.558;13.188;2023-09-07T01:11:36;101893.09;;;16.47;100.00
829;BME280;396;52.558;13.188;2023-09-07T01:14:03;101898.38;;;16.43;100.00
829;BME280;396;52.558;13.188;2023-09-07T01:16:30;101890.47;;;16.42;100.00
829;BME280;396;52.558;13.188;2023-09-07T01:18:59;101900.59;;;16.41;100.00
829;BME280;396;52.558;13.188;2023-09-07T01:21:27;101888.06;;;16.40;100.00
829;BME280;396;52.558;13.188;2023-09-07T01:23:56;101891.09;;;16.38;100.00
829;BME280;396;52.558;13.188;2023-09-07T01:26:23;101896.06;;;16.36;100.00
829;BME280;396;52.558;13.188;2023-09-07T01:28:50;101888.47;;;16.33;100.00
829;BME280;396;52.558;13.188;2023-09-07T01:31:17;101881.38;;;16.32;100.00
829;BME280;396;52.558;13.188;2023-09-07T01:33:43;101894.38;;;16.27;100.00
829;BME280;396;52.558;13.188;2023-09-07T01:36:10;101888.22;;;16.21;100.00
829;BME280;396;52.558;13.188;2023-09-07T01:38:37;101891.16;;;16.25;100.00
829;BME280;396;52.558;13.188;2023-09-07T01:41:05;101887.69;;;16.19;100.00
829;BME280;396;52.558;13.188;2023-09-07T01:43:33;101886.09;;;16.18;100.00
829;BME280;396;52.558;13.188;2023-09-07T01:45:59;101888.22;;;16.21;100.00
829;BME280;396;52.558;13.188;2023-09-07T01:48:26;101891.75;;;16.22;100.00
829;BME280;396;52.558;13.188;2023-09-07T01:50:53;101891.06;;;16.16;100.00
829;BME280;396;52.558;13.188;2023-09-07T01:53:19;101896.00;;;16.14;100.00
829;BME280;396;52.558;13.188;2023-09-07T01:55:46;101896.22;;;16.18;100.00
829;BME280;396;52.558;13.188;2023-09-07T01:58:14;101893.88;;;16.11;100.00
829;BME280;396;52.558;13.188;2023-09-07T02:00:41;101897.44;;;16.11;100.00
829;BME280;396;52.558;13.188;2023-09-07T02:03:07;101893.38;;;16.09;100.00
829;BME280;396;52.558;13.188;2023-09-07T02:05:35;101895.59;;;16.07;100.00
829;BME280;396;52.558;13.188;2023-09-07T02:08:01;101889.03;;;16.08;100.00
829;BME280;396;52.558;13.188;2023-09-07T02:10:29;101899.47;;;16.06;100.00
829;BME280;396;52.558;13.188;2023-09-07T02:12:56;101887.50;;;16.02;100.00
829;BME280;396;52.558;13.188;2023-09-07T02:15:24;101883.50;;;15.99;100.00
829;BME280;396;52.558;13.188;2023-09-07T02:17:51;101883.16;;;16.01;100.00
829;BME280;396;52.558;13.188;2023-09-07T02:20:18;101887.34;;;15.98;100.00
829;BME280;396;52.558;13.188;2023-09-07T02:22:45;101885.22;;;15.95;100.00
829;BME280;396;52.558;13.188;2023-09-07T02:25:12;101881.66;;;15.95;100.00
829;BME280;396;52.558;13.188;2023-09-07T02:27:40;101880.88;;;15.94;100.00
829;BME280;396;52.558;13.188;2023-09-07T02:30:07;101888.84;;;15.91;100.00
829;BME280;396;52.558;13.188;2023-09-07T02:32:35;101890.91;;;15.85;100.00
829;BME280;396;52.558;13.188;2023-09-07T02:35:02;101875.31;;;15.85;100.00
829;BME280;396;52.558;13.188;2023-09-07T02:37:29;101882.06;;;15.88;100.00
829;BME280;396;52.558;13.188;2023-09-07T02:39:56;101880.78;;;15.85;100.00
829;BME280;396;52.558;13.188;2023-09-07T02:42:22;101875.78;;;15.87;100.00
829;BME280;396;52.558;13.188;2023-09-07T02:44:49;101881.56;;;15.86;100.00
829;BME280;396;52.558;13.188;2023-09-07T02:47:16;101889.78;;;15.86;100.00
829;BME280;396;52.558;13.188;2023-09-07T02:49:44;101886.22;;;15.85;100.00
829;BME280;396;52.558;13.188;2023-09-07T02:52:11;101889.34;;;15.79;100.00
829;BME280;396;52.558;13.188;2023-09-07T02:54:37;101892.09;;;15.79;100.00
829;BME280;396;52.558;13.188;2023-09-07T02:57:04;101886.72;;;15.74;100.00
829;BME280;396;52.558;13.188;2023-09-07T02:59:31;101890.78;;;15.76;100.00
829;BME280;396;52.558;13.188;2023-09-07T03:01:57;101888.97;;;15.72;100.00
829;BME280;396;52.558;13.188;2023-09-07T03:04:24;101896.66;;;15.70;100.00
829;BME280;396;52.558;13.188;2023-09-07T03:06:52;101881.28;;;15.74;100.00
829;BME280;396;52.558;13.188;2023-09-07T03:09:18;101888.66;;;15.73;100.00
829;BME280;396;52.558;13.188;2023-09-07T03:11:45;101891.88;;;15.75;100.00
829;BME280;396;52.558;13.188;2023-09-07T03:14:12;101884.91;;;15.69;100.00
829;BME280;396;52.558;13.188;2023-09-07T03:16:38;101893.59;;;15.71;100.00
829;BME280;396;52.558;13.188;2023-09-07T03:19:05;101894.22;;;15.68;100.00
829;BME280;396;52.558;13.188;2023-09-07T03:21:32;101896.66;;;15.70;100.00
829;BME280;396;52.558;13.188;2023-09-07T03:24:00;101895.03;;;15.69;100.00
829;BME280;396;52.558;13.188;2023-09-07T03:26:27;101887.44;;;15.66;100.00
829;BME280;396;52.558;13.188;2023-09-07T03:28:53;101890.47;;;15.64;100.00
829;BME280;396;52.558;13.188;2023-09-07T03:31:20;101897.03;;;15.63;100.00
829;BME280;396;52.558;13.188;2023-09-07T03:33:46;101896.81;;;15.59;100.00
829;BME280;396;52.558;13.188;2023-09-07T03:36:13;101892.75;;;15.57;100.00
829;BME280;396;52.558;13.188;2023-09-07T03:38:40;101889.00;;;15.53;100.00
829;BME280;396;52.558;13.188;2023-09-07T03:41:08;101887.41;;;15.52;100.00
829;BME280;396;52.558;13.188;2023-09-07T03:43:34;101889.44;;;15.46;100.00
829;BME280;396;52.558;13.188;2023-09-07T03:46:01;101895.28;;;15.39;100.00
829;BME280;396;52.558;13.188;2023-09-07T03:48:28;101901.25;;;15.42;100.00
829;BME280;396;52.558;13.188;2023-09-07T03:50:54;101895.00;;;15.41;100.00
829;BME280;396;52.558;13.188;2023-09-07T03:53:21;101900.81;;;15.34;100.00
829;BME280;396;52.558;13.188;2023-09-07T03:55:48;101895.38;;;15.34;100.00
829;BME280;396;52.558;13.188;2023-09-07T03:58:16;101900.91;;;15.29;100.00
829;BME280;396;52.558;13.188;2023-09-07T04:00:44;101896.88;;;15.27;100.00
829;BME280;396;52.558;13.188;2023-09-07T04:03:11;101902.63;;;15.25;100.00
829;BME280;396;52.558;13.188;2023-09-07T04:05:38;101892.63;;;15.21;100.00
829;BME280;396;52.558;13.188;2023-09-07T04:08:05;101904.34;;;15.21;100.00
829;BME280;396;52.558;13.188;2023-09-07T04:10:32;101909.31;;;15.19;100.00
829;BME280;396;52.558;13.188;2023-09-07T04:12:59;101904.66;;;15.20;100.00
829;BME280;396;52.558;13.188;2023-09-07T04:15:28;101901.41;;;15.18;100.00
829;BME280;396;52.558;13.188;2023-09-07T04:17:56;101902.13;;;15.23;100.00
829;BME280;396;52.558;13.188;2023-09-07T04:20:23;101904.25;;;15.26;100.00
829;BME280;396;52.558;13.188;2023-09-07T04:22:51;101902.63;;;15.25;100.00
829;BME280;396;52.558;13.188;2023-09-07T04:25:18;101903.31;;;15.17;100.00
829;BME280;396;52.558;13.188;2023-09-07T04:27:46;101910.69;;;15.17;100.00
829;BME280;396;52.558;13.188;2023-09-07T04:30:12;101910.25;;;15.09;100.00
829;BME280;396;52.558;13.188;2023-09-07T04:32:40;101913.50;;;15.11;100.00
829;BME280;396;52.558;13.188;2023-09-07T04:35:07;101906.13;;;15.12;100.00
829;BME280;396;52.558;13.188;2023-09-07T04:37:34;101912.81;;;15.06;100.00
829;BME280;396;52.558;13.188;2023-09-07T04:40:00;101914.88;;;14.95;100.00
829;BME280;396;52.558;13.188;2023-09-07T04:42:28;101923.13;;;14.90;100.00
829;BME280;396;52.558;13.188;2023-09-07T04:44:54;101920.41;;;14.90;100.00
829;BME280;396;52.558;13.188;2023-09-07T04:47:21;101912.44;;;14.94;100.00
829;BME280;396;52.558;13.188;2023-09-07T04:49:50;101922.56;;;14.93;100.00
829;BME280;396;52.558;13.188;2023-09-07T04:52:17;101911.34;;;14.95;100.00
829;BME280;396;52.558;13.188;2023-09-07T04:54:44;101913.69;;;15.01;100.00
829;BME280;396;52.558;13.188;2023-09-07T04:57:11;101922.16;;;15.00;100.00
829;BME280;396;52.558;13.188;2023-09-07T04:59:37;101924.00;;;15.04;100.00
829;BME280;396;52.558;13.188;2023-09-07T05:02:04;101931.91;;;15.06;100.00
829;BME280;396;52.558;13.188;2023-09-07T05:04:30;101935.94;;;15.08;100.00
829;BME280;396;52.558;13.188;2023-09-07T05:07:01;101930.41;;;15.13;100.00
829;BME280;396;52.558;13.188;2023-09-07T05:09:28;101936.38;;;15.16;100.00
829;BME280;396;52.558;13.188;2023-09-07T05:11:55;101930.03;;;15.20;100.00
829;BME280;396;52.558;13.188;2023-09-07T05:14:22;101928.09;;;15.21;100.00
829;BME280;396;52.558;13.188;2023-09-07T05:16:49;101932.34;;;15.27;100.00
829;BME280;396;52.558;13.188;2023-09-07T05:19:16;101930.38;;;15.32;100.00
829;BME280;396;52.558;13.188;2023-09-07T05:21:43;101931.97;;;15.33;100.00
829;BME280;396;52.558;13.188;2023-09-07T05:24:13;101930.75;;;15.39;100.00
829;BME280;396;52.558;13.188;2023-09-07T05:26:39;101929.59;;;15.46;100.00
829;BME280;396;52.558;13.188;2023-09-07T05:29:06;101929.38;;;15.56;100.00
829;BME280;396;52.558;13.188;2023-09-07T05:31:33;101933.59;;;15.67;100.00
829;BME280;396;52.558;13.188;2023-09-07T05:33:59;101923.56;;;15.76;100.00
829;BME280;396;52.558;13.188;2023-09-07T05:36:26;101933.69;;;15.89;100.00
829;BME280;396;52.558;13.188;2023-09-07T05:38:53;101934.28;;;16.00;100.00
829;BME280;396;52.558;13.188;2023-09-07T05:41:21;101931.06;;;16.12;100.00
829;BME280;396;52.558;13.188;2023-09-07T05:43:48;101933.25;;;16.24;100.00
829;BME280;396;52.558;13.188;2023-09-07T05:46:15;101934.94;;;16.33;100.00
829;BME280;396;52.558;13.188;2023-09-07T05:48:41;101943.25;;;16.42;100.00
829;BME280;396;52.558;13.188;2023-09-07T05:53:38;101938.44;;;16.61;100.00
829;BME280;396;52.558;13.188;2023-09-07T05:56:05;101944.00;;;16.70;100.00
829;BME280;396;52.558;13.188;2023-09-07T05:58:33;101944.09;;;16.79;100.00
829;BME280;396;52.558;13.188;2023-09-07T06:00:59;101946.91;;;16.87;100.00
829;BME280;396;52.558;13.188;2023-09-07T06:03:26;101953.56;;;16.95;100.00
829;BME280;396;52.558;13.188;2023-09-07T06:05:53;101947.03;;;17.05;100.00
829;BME280;396;52.558;13.188;2023-09-07T06:08:19;101952.25;;;17.15;100.00
829;BME280;396;52.558;13.188;2023-09-07T06:10:46;101952.94;;;17.21;100.00
829;BME280;396;52.558;13.188;2023-09-07T06:13:13;101952.50;;;17.27;100.00
829;BME280;396;52.558;13.188;2023-09-07T06:15:41;101953.38;;;17.36;100.00
829;BME280;396;52.558;13.188;2023-09-07T06:18:08;101955.03;;;17.46;100.00
829;BME280;396;52.558;13.188;2023-09-07T06:20:34;101952.34;;;17.55;100.00
829;BME280;396;52.558;13.188;2023-09-07T06:23:01;101964.75;;;17.61;100.00
829;BME280;396;52.558;13.188;2023-09-07T06:25:28;101953.38;;;17.68;100.00
829;BME280;396;52.558;13.188;2023-09-07T06:27:54;101954.56;;;17.75;100.00
829;BME280;396;52.558;13.188;2023-09-07T06:30:21;101958.78;;;17.81;100.00
829;BME280;396;52.558;13.188;2023-09-07T06:32:49;101958.00;;;17.89;100.00
829;BME280;396;52.558;13.188;2023-09-07T06:35:17;101957.72;;;18.00;100.00
829;BME280;396;52.558;13.188;2023-09-07T06:37:44;101961.63;;;18.07;100.00
829;BME280;396;52.558;13.188;2023-09-07T06:40:11;101967.59;;;18.18;100.00
829;BME280;396;52.558;13.188;2023-09-07T06:42:38;101958.59;;;18.26;100.00
829;BME280;396;52.558;13.188;2023-09-07T06:45:06;101962.97;;;18.36;100.00
829;BME280;396;52.558;13.188;2023-09-07T06:47:33;101955.56;;;18.45;100.00
829;BME280;396;52.558;13.188;2023-09-07T06:50:02;101967.03;;;18.56;100.00
829;BME280;396;52.558;13.188;2023-09-07T06:52:29;101967.34;;;18.63;100.00
829;BME280;396;52.558;13.188;2023-09-07T06:54:55;101973.06;;;18.75;100.00
829;BME280;396;52.558;13.188;2023-09-07T06:57:22;101967.56;;;18.84;100.00
829;BME280;396;52.558;13.188;2023-09-07T06:59:49;101972.25;;;18.92;100.00
829;BME280;396;52.558;13.188;2023-09-07T07:02:15;101973.69;;;18.98;100.00
829;BME280;396;52.558;13.188;2023-09-07T07:04:42;101976.13;;;19.08;100.00
829;BME280;396;52.558;13.188;2023-09-07T07:07:11;101964.31;;;19.16;100.00
829;BME280;396;52.558;13.188;2023-09-07T07:09:38;101972.53;;;19.25;100.00
829;BME280;396;52.558;13.188;2023-09-07T07:12:05;101977.72;;;19.35;100.00
829;BME280;396;52.558;13.188;2023-09-07T07:14:32;101982.84;;;19.46;100.00
829;BME280;396;52.558;13.188;2023-09-07T07:16:58;101978.94;;;19.55;99.99
829;BME280;396;52.558;13.188;2023-09-07T07:19:27;101978.94;;;19.64;98.99
829;BME280;396;52.558;13.188;2023-09-07T07:21:53;101980.69;;;19.77;98.07
829;BME280;396;52.558;13.188;2023-09-07T07:24:21;101981.94;;;19.88;97.44
829;BME280;396;52.558;13.188;2023-09-07T07:26:48;101979.63;;;19.99;96.53
829;BME280;396;52.558;13.188;2023-09-07T07:29:14;101975.69;;;20.09;96.03
829;BME280;396;52.558;13.188;2023-09-07T07:31:41;101976.13;;;20.20;95.48
829;BME280;396;52.558;13.188;2023-09-07T07:34:08;101981.69;;;20.32;93.39
829;BME280;396;52.558;13.188;2023-09-07T07:36:35;101988.78;;;20.41;93.15
829;BME280;396;52.558;13.188;2023-09-07T07:39:02;101982.91;;;20.52;91.77
829;BME280;396;52.558;13.188;2023-09-07T07:41:30;101986.91;;;20.63;91.42
829;BME280;396;52.558;13.188;2023-09-07T07:43:57;101992.78;;;20.74;90.17
829;BME280;396;52.558;13.188;2023-09-07T07:46:23;101987.69;;;20.84;89.39
829;BME280;396;52.558;13.188;2023-09-07T07:48:50;101990.38;;;20.93;88.44
829;BME280;396;52.558;13.188;2023-09-07T07:51:17;101986.88;;;21.05;86.63
829;BME280;396;52.558;13.188;2023-09-07T07:53:43;101986.78;;;21.13;86.21
829;BME280;396;52.558;13.188;2023-09-07T07:56:14;101985.56;;;21.23;85.33
829;BME280;396;52.558;13.188;2023-09-07T07:58:43;101983.38;;;21.29;84.26
829;BME280;396;52.558;13.188;2023-09-07T08:01:14;101985.63;;;21.35;81.82
829;BME280;396;52.558;13.188;2023-09-07T08:03:40;101981.50;;;21.41;79.39
829;BME280;396;52.558;13.188;2023-09-07T08:06:07;101988.66;;;21.55;79.28
829;BME280;396;52.558;13.188;2023-09-07T08:08:33;101982.00;;;21.68;77.77
829;BME280;396;52.558;13.188;2023-09-07T08:11:00;101985.25;;;21.82;76.84
829;BME280;396;52.558;13.188;2023-09-07T08:13:31;101988.50;;;21.97;76.44
829;BME280;396;52.558;13.188;2023-09-07T08:15:59;101992.88;;;22.10;76.38
829;BME280;396;52.558;13.188;2023-09-07T08:18:26;101993.34;;;22.24;74.74
829;BME280;396;52.558;13.188;2023-09-07T08:20:52;101991.72;;;22.35;74.45
829;BME280;396;52.558;13.188;2023-09-07T08:23:20;101999.88;;;22.44;73.92
829;BME280;396;52.558;13.188;2023-09-07T08:25:47;101994.22;;;22.53;74.44
829;BME280;396;52.558;13.188;2023-09-07T08:28:14;101990.19;;;22.62;73.56
829;BME280;396;52.558;13.188;2023-09-07T08:30:41;101997.88;;;22.69;72.37
829;BME280;396;52.558;13.188;2023-09-07T08:33:09;101994.19;;;22.77;71.47
829;BME280;396;52.558;13.188;2023-09-07T08:35:36;101991.63;;;22.84;70.55
829;BME280;396;52.558;13.188;2023-09-07T08:38:09;101981.28;;;22.94;69.33
829;BME280;396;52.558;13.188;2023-09-07T08:40:36;101988.34;;;23.07;69.09
829;BME280;396;52.558;13.188;2023-09-07T08:43:04;101986.25;;;23.16;68.79
829;BME280;396;52.558;13.188;2023-09-07T08:45:32;101977.53;;;23.30;67.29
829;BME280;396;52.558;13.188;2023-09-07T08:48:06;101990.47;;;23.41;67.56
829;BME280;396;52.558;13.188;2023-09-07T08:50:35;101985.13;;;23.49;66.88
829;BME280;396;52.558;13.188;2023-09-07T08:53:03;101990.94;;;23.59;66.23
829;BME280;396;52.558;13.188;2023-09-07T08:55:30;101989.56;;;23.65;65.68
829;BME280;396;52.558;13.188;2023-09-07T08:57:57;101996.94;;;23.77;66.09
829;BME280;396;52.558;13.188;2023-09-07T09:00:24;101993.22;;;23.85;63.65
829;BME280;396;52.558;13.188;2023-09-07T09:02:51;101999.03;;;23.96;61.79
829;BME280;396;52.558;13.188;2023-09-07T09:05:19;102000.06;;;24.07;62.97
829;BME280;396;52.558;13.188;2023-09-07T09:07:47;101992.31;;;24.13;62.37
829;BME280;396;52.558;13.188;2023-09-07T09:10:14;101993.63;;;24.19;63.00
829;BME280;396;52.558;13.188;2023-09-07T09:12:46;101992.72;;;24.31;60.81
829;BME280;396;52.558;13.188;2023-09-07T09:15:13;101993.78;;;24.42;60.36
829;BME280;396;52.558;13.188;2023-09-07T09:17:40;101992.00;;;24.50;58.89
829;BME280;396;52.558;13.188;2023-09-07T09:20:20;101995.38;;;24.59;56.08
829;BME280;396;52.558;13.188;2023-09-07T09:22:50;101993.59;;;24.70;57.08
829;BME280;396;52.558;13.188;2023-09-07T09:25:17;101997.72;;;24.76;57.73
829;BME280;396;52.558;13.188;2023-09-07T09:27:44;101986.34;;;24.81;56.57
829;BME280;396;52.558;13.188;2023-09-07T09:30:11;101989.69;;;24.90;57.41
829;BME280;396;52.558;13.188;2023-09-07T09:32:40;101995.69;;;24.92;56.95
829;BME280;396;52.558;13.188;2023-09-07T09:35:08;101986.31;;;25.01;56.28
829;BME280;396;52.558;13.188;2023-09-07T09:37:42;101981.66;;;25.05;56.65
829;BME280;396;52.558;13.188;2023-09-07T09:40:11;101973.78;;;25.07;54.70
829;BME280;396;52.558;13.188;2023-09-07T09:42:38;101971.16;;;25.14;54.14
829;BME280;396;52.558;13.188;2023-09-07T09:45:07;101966.16;;;25.20;55.59
829;BME280;396;52.558;13.188;2023-09-07T09:47:38;101965.47;;;25.26;54.91
829;BME280;396;52.558;13.188;2023-09-07T09:50:06;101972.75;;;25.34;54.68
829;BME280;396;52.558;13.188;2023-09-07T09:52:34;101970.84;;;25.38;53.34
829;BME280;396;52.558;13.188;2023-09-07T09:55:02;101969.81;;;25.47;53.16
829;BME280;396;52.558;13.188;2023-09-07T09:57:32;101968.69;;;25.51;51.79
829;BME280;396;52.558;13.188;2023-09-07T09:59:59;101961.34;;;25.62;51.26
829;BME280;396;52.558;13.188;2023-09-07T10:02:32;101970.28;;;25.75;51.77
829;BME280;396;52.558;13.188;2023-09-07T10:05:02;101962.59;;;25.88;51.95
829;BME280;396;52.558;13.188;2023-09-07T10:07:41;101958.50;;;26.05;50.85
829;BME280;396;52.558;13.188;2023-09-07T10:10:09;101955.38;;;26.10;50.82
829;BME280;396;52.558;13.188;2023-09-07T10:12:41;101957.16;;;26.22;51.59
829;BME280;396;52.558;13.188;2023-09-07T10:15:20;101961.59;;;26.26;51.53
829;BME280;396;52.558;13.188;2023-09-07T10:17:47;101962.78;;;26.29;51.28
829;BME280;396;52.558;13.188;2023-09-07T10:20:15;101959.69;;;26.34;48.85
829;BME280;396;52.558;13.188;2023-09-07T10:22:42;101965.34;;;26.41;50.57
829;BME280;396;52.558;13.188;2023-09-07T10:25:18;101967.84;;;26.46;51.90
829;BME280;396;52.558;13.188;2023-09-07T10:27:46;101974.25;;;26.50;48.38
829;BME280;396;52.558;13.188;2023-09-07T10:30:13;101967.72;;;26.69;47.01
829;BME280;396;52.558;13.188;2023-09-07T10:32:45;101967.09;;;26.79;48.37
829;BME280;396;52.558;13.188;2023-09-07T10:35:14;101963.16;;;26.84;47.84
829;BME280;396;52.558;13.188;2023-09-07T10:37:44;101962.06;;;26.92;47.19
829;BME280;396;52.558;13.188;2023-09-07T10:40:11;101963.72;;;27.00;49.42
829;BME280;396;52.558;13.188;2023-09-07T10:42:39;101955.88;;;27.06;46.29
829;BME280;396;52.558;13.188;2023-09-07T10:45:12;101951.22;;;27.17;47.39
829;BME280;396;52.558;13.188;2023-09-07T10:47:41;101956.94;;;27.31;46.87
829;BME280;396;52.558;13.188;2023-09-07T10:50:10;101955.47;;;27.45;46.26
829;BME280;396;52.558;13.188;2023-09-07T10:52:38;101952.03;;;27.58;46.84
829;BME280;396;52.558;13.188;2023-09-07T10:55:05;101960.88;;;27.67;46.64
829;BME280;396;52.558;13.188;2023-09-07T10:57:41;101955.88;;;27.87;44.38
829;BME280;396;52.558;13.188;2023-09-07T11:00:08;101956.34;;;28.00;44.88
829;BME280;396;52.558;13.188;2023-09-07T11:02:37;101955.25;;;28.12;43.85
829;BME280;396;52.558;13.188;2023-09-07T11:05:05;101958.88;;;28.23;44.19
829;BME280;396;52.558;13.188;2023-09-07T11:07:31;101954.19;;;28.34;43.97
829;BME280;396;52.558;13.188;2023-09-07T11:09:58;101945.91;;;28.49;43.50
829;BME280;396;52.558;13.188;2023-09-07T11:12:25;101936.88;;;28.73;42.81
829;BME280;396;52.558;13.188;2023-09-07T11:14:53;101935.78;;;29.21;43.63
829;BME280;396;52.558;13.188;2023-09-07T11:17:25;101931.06;;;29.82;42.83
829;BME280;396;52.558;13.188;2023-09-07T11:19:54;101940.50;;;30.49;40.35
829;BME280;396;52.558;13.188;2023-09-07T11:22:21;101940.19;;;31.13;40.45
829;BME280;396;52.558;13.188;2023-09-07T11:24:47;101939.31;;;31.75;38.76
829;BME280;396;52.558;13.188;2023-09-07T11:27:17;101940.88;;;32.21;38.46
829;BME280;396;52.558;13.188;2023-09-07T11:29:50;101937.25;;;32.58;36.42
829;BME280;396;52.558;13.188;2023-09-07T11:32:17;101940.44;;;32.91;35.93
829;BME280;396;52.558;13.188;2023-09-07T11:34:47;101942.50;;;33.14;35.39
829;BME280;396;52.558;13.188;2023-09-07T11:37:17;101935.34;;;33.60;35.94
829;BME280;396;52.558;13.188;2023-09-07T11:39:44;101944.13;;;34.09;35.49
829;BME280;396;52.558;13.188;2023-09-07T11:42:10;101947.41;;;34.47;34.05
829;BME280;396;52.558;13.188;2023-09-07T11:44:37;101940.91;;;34.86;34.06
829;BME280;396;52.558;13.188;2023-09-07T11:47:04;101940.28;;;35.15;34.13
829;BME280;396;52.558;13.188;2023-09-07T11:49:31;101944.50;;;35.23;32.62
829;BME280;396;52.558;13.188;2023-09-07T11:51:58;101935.38;;;35.52;33.52
829;BME280;396;52.558;13.188;2023-09-07T11:54:26;101940.88;;;35.88;33.04
829;BME280;396;52.558;13.188;2023-09-07T11:56:52;101943.13;;;36.09;33.02
829;BME280;396;52.558;13.188;2023-09-07T11:59:19;101946.25;;;36.28;31.83
829;BME280;396;52.558;13.188;2023-09-07T12:01:46;101941.25;;;36.48;29.94
829;BME280;396;52.558;13.188;2023-09-07T12:04:12;101936.38;;;36.49;30.41
829;BME280;396;52.558;13.188;2023-09-07T12:06:39;101936.84;;;36.73;30.95
829;BME280;396;52.558;13.188;2023-09-07T12:09:06;101936.16;;;36.56;30.94
829;BME280;396;52.558;13.188;2023-09-07T12:11:35;101938.19;;;36.55;31.52
829;BME280;396;52.558;13.188;2023-09-07T12:14:02;101939.56;;;36.76;31.91
829;BME280;396;52.558;13.188;2023-09-07T12:16:29;101936.75;;;36.76;30.24
829;BME280;396;52.558;13.188;2023-09-07T12:18:56;101932.16;;;36.95;30.10
829;BME280;396;52.558;13.188;2023-09-07T12:21:23;101937.31;;;37.22;29.56
829;BME280;396;52.558;13.188;2023-09-07T12:23:49;101936.09;;;37.10;29.31
829;BME280;396;52.558;13.188;2023-09-07T12:26:16;101947.06;;;36.96;28.72
829;BME280;396;52.558;13.188;2023-09-07T12:28:46;101941.88;;;37.07;29.92
829;BME280;396;52.558;13.188;2023-09-07T12:31:13;101942.75;;;37.17;30.86
829;BME280;396;52.558;13.188;2023-09-07T12:33:40;101951.25;;;37.42;28.58
829;BME280;396;52.558;13.188;2023-09-07T12:36:07;101932.41;;;37.61;30.04
829;BME280;396;52.558;13.188;2023-09-07T12:38:35;101932.84;;;37.72;30.12
829;BME280;396;52.558;13.188;2023-09-07T12:41:02;101925.19;;;37.60;28.21
829;BME280;396;52.558;13.188;2023-09-07T12:43:28;101925.75;;;37.90;29.15
829;BME280;396;52.558;13.188;2023-09-07T12:45:56;101930.69;;;37.98;28.27
829;BME280;396;52.558;13.188;2023-09-07T12:48:24;101924.38;;;38.16;28.89
829;BME280;396;52.558;13.188;2023-09-07T12:50:50;101920.56;;;38.10;28.25
829;BME280;396;52.558;13.188;2023-09-07T12:53:17;101920.56;;;38.10;27.45
829;BME280;396;52.558;13.188;2023-09-07T12:55:44;101915.72;;;37.76;28.13
829;BME280;396;52.558;13.188;2023-09-07T12:58:11;101912.13;;;37.62;28.49
829;BME280;396;52.558;13.188;2023-09-07T13:00:37;101910.44;;;37.65;28.13
829;BME280;396;52.558;13.188;2023-09-07T13:03:06;101909.75;;;37.74;29.33
829;BME280;396;52.558;13.188;2023-09-07T13:05:33;101907.00;;;37.35;28.71
829;BME280;396;52.558;13.188;2023-09-07T13:08:00;101904.72;;;37.56;29.63
829;BME280;396;52.558;13.188;2023-09-07T13:10:27;101906.78;;;37.77;29.06
829;BME280;396;52.558;13.188;2023-09-07T13:12:54;101904.28;;;37.79;28.73
829;BME280;396;52.558;13.188;2023-09-07T13:15:21;101907.31;;;37.85;29.22
829;BME280;396;52.558;13.188;2023-09-07T13:17:48;101908.47;;;37.88;27.41